Time;durP1;ratioP1;P1;durP2;ratioP2;P2;SDS_P1;SDS_P2;PMS_P1;PMS_P2;Temp;Humidity;BMP_temperature;BMP_pressure;BME280_temperature;BME280_humidity;BME280_pressure;Samples;Min_cycle;Max_cycle;Signal;HPM_P1;HPM_P2
2022/06/11 00:01:40;;;;;;;3.08;2.92;;;16.60;99.90;;;;;;6287864;28;20275;-67
2022/06/11 00:04:46;;;;;;;6.78;3.00;;;16.50;99.90;;;;;;6287072;28;20298;-67
2022/06/11 00:07:51;;;;;;;6.78;2.83;;;16.60;99.90;;;;;;6286980;28;20299;-67
2022/06/11 00:10:57;;;;;;;3.60;2.63;;;16.50;99.90;;;;;;6287288;28;20287;-67
2022/06/11 00:14:02;;;;;;;3.40;3.10;;;16.50;99.90;;;;;;6287149;28;20450;-67
2022/06/11 00:17:13;;;;;;;6.05;2.67;;;16.40;99.90;;;;;;6287659;28;20272;-67
2022/06/11 00:20:18;;;;;;;5.60;2.80;;;16.40;99.90;;;;;;6286561;28;20274;-67
2022/06/11 00:23:23;;;;;;;8.40;3.25;;;16.40;99.90;;;;;;6286881;28;20617;-67
2022/06/11 00:26:30;;;;;;;5.95;2.92;;;16.40;99.90;;;;;;6287341;28;20271;-67
2022/06/11 00:29:38;;;;;;;8.93;3.17;;;16.30;99.90;;;;;;6286727;28;20299;-67
2022/06/11 00:32:45;;;;;;;3.63;2.78;;;16.30;99.90;;;;;;6286897;28;20306;-68
2022/06/11 00:35:51;;;;;;;3.10;3.00;;;16.40;99.90;;;;;;6287339;28;20459;-67
2022/06/11 00:38:56;;;;;;;3.15;2.85;;;16.30;99.90;;;;;;6286388;28;20295;-67
2022/06/11 00:42:06;;;;;;;5.07;2.90;;;16.30;99.90;;;;;;6286775;28;20277;-67
2022/06/11 00:45:23;;;;;;;5.10;2.60;;;16.30;99.90;;;;;;6285732;28;20275;-68
2022/06/11 00:48:34;;;;;;;4.00;2.92;;;16.30;99.90;;;;;;6286323;28;20473;-67
2022/06/11 00:51:39;;;;;;;5.03;2.97;;;16.20;99.90;;;;;;6286945;28;20271;-67
2022/06/11 00:54:49;;;;;;;25.55;3.30;;;16.20;99.90;;;;;;6286521;28;20295;-68
2022/06/11 00:57:59;;;;;;;4.53;2.75;;;16.10;99.90;;;;;;6286227;28;20294;-68
2022/06/11 01:01:05;;;;;;;24.15;3.55;;;16.20;99.90;;;;;;6286138;28;20267;-67
2022/06/11 01:04:36;;;;;;;4.80;2.65;;;16.20;99.90;;;;;;6286037;28;20299;-68
2022/06/11 01:08:30;;;;;;;4.97;2.85;;;16.10;99.90;;;;;;6285199;28;20291;-68
2022/06/11 01:11:56;;;;;;;3.00;2.90;;;16.10;99.90;;;;;;6268095;28;20442;-67
2022/06/11 01:15:09;;;;;;;8.13;3.50;;;16.10;99.90;;;;;;6285628;28;20295;-68
2022/06/11 01:18:27;;;;;;;8.95;3.10;;;16.10;99.90;;;;;;6285855;28;20291;-68
2022/06/11 01:21:43;;;;;;;3.42;2.90;;;16.10;99.90;;;;;;6286148;28;20275;-67
2022/06/11 01:24:58;;;;;;;3.20;3.00;;;16.00;99.90;;;;;;6285439;28;20294;-67
2022/06/11 01:28:42;;;;;;;9.63;3.25;;;16.00;99.90;;;;;;6285609;28;20287;-68
2022/06/11 01:31:53;;;;;;;6.60;2.97;;;15.80;99.90;;;;;;6286259;28;20267;-67
2022/06/11 01:35:13;;;;;;;4.50;2.83;;;15.80;99.90;;;;;;6285096;28;20300;-67
2022/06/11 01:38:25;;;;;;;10.27;3.10;;;15.90;99.90;;;;;;6285504;28;20595;-67
2022/06/11 01:41:37;;;;;;;3.10;2.85;;;15.80;99.90;;;;;;6285640;28;20267;-67
2022/06/11 01:44:44;;;;;;;4.63;2.88;;;15.80;99.90;;;;;;6285354;28;20570;-67
2022/06/11 01:47:52;;;;;;;11.23;3.17;;;15.80;99.90;;;;;;6285025;28;20299;-67
2022/06/11 01:51:10;;;;;;;6.38;3.00;;;15.70;99.90;;;;;;6287281;28;20270;-67
2022/06/11 01:54:33;;;;;;;7.00;3.05;;;15.60;99.90;;;;;;6290143;28;20299;-67
2022/06/11 01:57:56;;;;;;;4.78;3.17;;;15.60;99.90;;;;;;6290374;28;20286;-67
2022/06/11 02:01:07;;;;;;;4.38;3.30;;;15.60;99.90;;;;;;6290819;28;20275;-67
2022/06/11 02:04:22;;;;;;;7.30;3.22;;;15.70;99.90;;;;;;6290120;28;20290;-67
2022/06/11 02:07:35;;;;;;;3.20;3.08;;;15.60;99.90;;;;;;6286809;28;20547;-67
2022/06/11 02:10:48;;;;;;;3.47;3.33;;;15.60;99.90;;;;;;6276122;28;20292;-67
2022/06/11 02:13:56;;;;;;;3.05;2.80;;;15.60;99.90;;;;;;6264769;28;20513;-67
2022/06/11 02:17:08;;;;;;;3.58;2.90;;;15.60;99.90;;;;;;6265784;28;20273;-67
2022/06/11 02:20:20;;;;;;;8.63;2.90;;;15.60;99.90;;;;;;6264969;28;20279;-67
2022/06/11 02:23:29;;;;;;;3.75;3.10;;;15.60;99.90;;;;;;6264619;28;20485;-67
2022/06/11 02:26:38;;;;;;;4.03;3.25;;;15.50;99.90;;;;;;6265397;28;20272;-67
2022/06/11 02:29:44;;;;;;;4.25;3.58;;;15.40;99.90;;;;;;6264895;28;20300;-67
2022/06/11 02:32:50;;;;;;;6.72;3.47;;;15.40;99.90;;;;;;6264664;28;20291;-67
2022/06/11 02:36:03;;;;;;;3.20;2.88;;;15.40;99.90;;;;;;6264627;28;20276;-67
2022/06/11 02:39:09;;;;;;;8.15;3.20;;;15.40;99.90;;;;;;6264447;28;20462;-67
2022/06/11 02:42:18;;;;;;;3.53;3.13;;;15.30;99.90;;;;;;6263865;28;20280;-67
2022/06/11 02:45:24;;;;;;;8.10;3.70;;;15.40;99.90;;;;;;6264926;28;20448;-67
2022/06/11 02:48:29;;;;;;;3.30;3.17;;;15.40;99.90;;;;;;6264085;28;20299;-67
2022/06/11 02:51:36;;;;;;;3.28;3.08;;;15.50;99.90;;;;;;6264272;28;20271;-67
2022/06/11 02:54:43;;;;;;;3.35;3.15;;;15.50;99.90;;;;;;6263867;28;20299;-67
2022/06/11 02:57:48;;;;;;;3.33;3.03;;;15.40;99.90;;;;;;6264066;28;20291;-67
2022/06/11 03:00:53;;;;;;;9.45;3.33;;;15.40;99.90;;;;;;6263748;28;20271;-67
2022/06/11 03:03:59;;;;;;;4.40;3.95;;;15.40;99.90;;;;;;6262383;28;20303;-67
2022/06/11 03:07:08;;;;;;;8.48;3.50;;;15.40;99.90;;;;;;6264505;28;20399;-67
2022/06/11 03:10:17;;;;;;;11.85;3.72;;;15.40;99.90;;;;;;6268302;28;20311;-67
2022/06/11 03:13:23;;;;;;;3.83;2.97;;;15.50;99.90;;;;;;6288297;28;20291;-67
2022/06/11 03:16:28;;;;;;;3.00;2.90;;;15.40;99.90;;;;;;6288730;28;20274;-69
2022/06/11 03:19:33;;;;;;;6.93;3.40;;;15.40;99.90;;;;;;6288024;28;20473;-66
2022/06/11 03:22:40;;;;;;;3.25;3.05;;;15.40;99.90;;;;;;6288222;28;20487;-67
2022/06/11 03:25:46;;;;;;;3.70;3.50;;;15.40;99.90;;;;;;6288973;28;20276;-67
2022/06/11 03:28:53;;;;;;;3.67;3.20;;;15.40;99.90;;;;;;6287864;28;20294;-67
2022/06/11 03:31:59;;;;;;;3.83;3.60;;;15.40;99.90;;;;;;6288547;28;20271;-67
2022/06/11 03:35:05;;;;;;;3.22;2.92;;;15.50;99.90;;;;;;6287940;28;20295;-67
2022/06/11 03:38:19;;;;;;;3.20;3.00;;;15.50;99.90;;;;;;6263169;28;20291;-67
2022/06/11 03:41:25;;;;;;;3.33;2.85;;;15.60;99.90;;;;;;6263332;28;20271;-67
2022/06/11 03:44:30;;;;;;;5.32;3.10;;;15.60;99.90;;;;;;6262917;28;20299;-67
2022/06/11 03:47:38;;;;;;;4.57;2.90;;;15.50;99.90;;;;;;6263238;28;20300;-67
2022/06/11 03:50:43;;;;;;;4.32;3.10;;;15.60;99.90;;;;;;6263864;28;20272;-67
2022/06/11 03:53:50;;;;;;;5.13;2.97;;;15.70;99.90;;;;;;6262669;28;20482;-67
2022/06/11 03:56:55;;;;;;;2.78;2.67;;;15.70;99.90;;;;;;6263350;28;20271;-67
2022/06/11 04:00:01;;;;;;;5.07;2.90;;;15.70;99.90;;;;;;6262546;28;20603;-67
2022/06/11 04:03:15;;;;;;;4.10;2.50;;;15.80;99.90;;;;;;6262919;28;20292;-67
2022/06/11 04:06:25;;;;;;;5.60;2.70;;;15.80;99.90;;;;;;6261766;28;20272;-67
2022/06/11 04:09:36;;;;;;;3.30;2.47;;;15.80;99.90;;;;;;6263361;28;20304;-67
2022/06/11 04:12:41;;;;;;;4.20;2.67;;;15.90;99.90;;;;;;6286781;28;20296;-67
2022/06/11 04:15:47;;;;;;;2.92;2.70;;;15.90;99.90;;;;;;6287222;28;20685;-66
2022/06/11 04:18:53;;;;;;;2.97;2.80;;;15.90;99.90;;;;;;6286774;28;20299;-67
2022/06/11 04:21:59;;;;;;;3.17;2.95;;;15.90;99.90;;;;;;6287161;28;20272;-67
2022/06/11 04:25:07;;;;;;;2.67;2.58;;;15.90;99.90;;;;;;6286964;28;20303;-67
2022/06/11 04:28:18;;;;;;;2.65;2.65;;;16.00;99.90;;;;;;6286576;28;20290;-67
2022/06/11 04:31:25;;;;;;;3.10;2.83;;;16.00;99.90;;;;;;6287271;28;20271;-67
2022/06/11 04:34:31;;;;;;;3.28;3.05;;;16.00;99.90;;;;;;6286569;28;20295;-67
2022/06/11 04:37:36;;;;;;;3.80;2.85;;;16.10;99.90;;;;;;6286191;28;20291;-67
2022/06/11 04:40:43;;;;;;;2.90;2.55;;;16.10;99.90;;;;;;6286950;28;20266;-67
2022/06/11 04:43:48;;;;;;;3.33;2.72;;;16.20;99.90;;;;;;6286006;28;20294;-67
2022/06/11 04:46:54;;;;;;;2.92;2.72;;;16.20;99.90;;;;;;6286833;28;20291;-67
2022/06/11 04:50:02;;;;;;;2.70;2.55;;;16.30;99.90;;;;;;6286566;28;20299;-67
2022/06/11 04:53:07;;;;;;;2.83;2.72;;;16.30;99.90;;;;;;6285939;28;20586;-67
2022/06/11 04:56:18;;;;;;;3.22;2.70;;;16.40;99.90;;;;;;6286078;28;20291;-67
2022/06/11 04:59:24;;;;;;;2.67;2.50;;;16.50;99.90;;;;;;6285641;28;20299;-67
2022/06/11 05:02:29;;;;;;;3.08;2.97;;;16.40;99.90;;;;;;6284346;28;20290;-68
2022/06/11 05:05:35;;;;;;;2.70;2.60;;;16.50;99.90;;;;;;6286531;28;20275;-67
2022/06/11 05:08:40;;;;;;;2.60;2.60;;;16.70;99.90;;;;;;6285432;28;20497;-67
2022/06/11 05:11:47;;;;;;;5.38;2.90;;;17.00;99.90;;;;;;6279937;28;20283;-67
2022/06/11 05:14:53;;;;;;;3.25;2.50;;;17.20;99.90;;;;;;6285075;28;20298;-67
2022/06/11 05:17:58;;;;;;;3.67;2.65;;;17.20;99.90;;;;;;6285525;28;20290;-67
2022/06/11 05:21:04;;;;;;;3.63;2.70;;;17.50;99.90;;;;;;6285714;28;20271;-67
2022/06/11 05:24:10;;;;;;;2.75;2.65;;;18.60;99.90;;;;;;6285292;28;20302;-67
2022/06/11 05:27:20;;;;;;;2.60;2.50;;;18.60;99.90;;;;;;6284497;28;20275;-68
2022/06/11 05:30:30;;;;;;;2.75;2.55;;;18.50;99.90;;;;;;6285961;28;20271;-67
2022/06/11 05:33:37;;;;;;;3.00;2.80;;;18.60;99.90;;;;;;6285431;28;20492;-67
2022/06/11 05:36:42;;;;;;;4.75;2.95;;;18.80;99.90;;;;;;6285344;28;20290;-67
2022/06/11 05:39:47;;;;;;;2.70;2.50;;;18.50;99.90;;;;;;6285102;28;20299;-67
2022/06/11 05:42:54;;;;;;;2.60;2.50;;;18.60;99.90;;;;;;6285033;28;20299;-68
2022/06/11 05:46:04;;;;;;;3.80;2.70;;;18.60;99.90;;;;;;6285375;28;20276;-67
2022/06/11 05:49:16;;;;;;;3.05;2.90;;;18.60;99.90;;;;;;6284793;28;20299;-67
2022/06/11 05:52:25;;;;;;;2.97;2.78;;;18.50;99.90;;;;;;6284766;28;20456;-67
2022/06/11 05:55:33;;;;;;;3.25;2.72;;;18.70;99.90;;;;;;6285132;28;20271;-67
2022/06/11 05:58:45;;;;;;;3.58;2.50;;;18.80;99.90;;;;;;6284846;28;20667;-67
2022/06/11 06:01:51;;;;;;;2.78;2.58;;;18.80;99.90;;;;;;6285339;28;20542;-67
2022/06/11 06:04:57;;;;;;;3.20;2.25;;;18.90;99.90;;;;;;6284461;28;20315;-67
2022/06/11 06:08:02;;;;;;;3.35;2.67;;;19.00;99.90;;;;;;6284609;28;20290;-67
2022/06/11 06:11:08;;;;;;;2.72;2.53;;;19.10;99.90;;;;;;6276661;28;20287;-67
2022/06/11 06:14:15;;;;;;;4.22;3.03;;;19.00;99.90;;;;;;6284510;28;20295;-67
2022/06/11 06:17:20;;;;;;;5.22;2.95;;;18.90;99.90;;;;;;6284734;28;20594;-67
2022/06/11 06:20:40;;;;;;;5.70;2.75;;;18.90;99.90;;;;;;6285165;28;20271;-67
2022/06/11 06:23:46;;;;;;;6.22;2.50;;;19.10;99.90;;;;;;6284486;28;20295;-67
2022/06/11 06:26:51;;;;;;;2.70;2.33;;;19.10;99.90;;;;;;6285228;28;20275;-67
2022/06/11 06:29:58;;;;;;;2.70;2.53;;;19.10;99.90;;;;;;6284470;28;20484;-67
2022/06/11 06:33:03;;;;;;;2.85;2.55;;;19.10;99.90;;;;;;6284179;28;20447;-67
2022/06/11 06:36:10;;;;;;;2.85;2.60;;;19.20;99.90;;;;;;6284538;28;20353;-68
2022/06/11 06:39:15;;;;;;;2.42;2.17;;;19.20;99.90;;;;;;6288704;28;20294;-68
2022/06/11 06:42:20;;;;;;;2.97;2.20;;;19.20;99.90;;;;;;6288943;28;20271;-67
2022/06/11 06:45:28;;;;;;;4.45;2.60;;;19.20;99.90;;;;;;6271385;28;20270;-69
2022/06/11 06:48:34;;;;;;;2.88;2.60;;;19.20;99.90;;;;;;6289070;28;20374;-67
2022/06/11 06:51:39;;;;;;;3.05;2.60;;;19.40;99.90;;;;;;6288968;28;20271;-67
2022/06/11 06:54:44;;;;;;;4.72;2.55;;;19.60;99.90;;;;;;6288719;28;20299;-67
2022/06/11 06:57:50;;;;;;;2.90;2.45;;;19.50;99.90;;;;;;6288398;28;20575;-67
2022/06/11 07:00:57;;;;;;;5.75;2.40;;;19.50;99.90;;;;;;6288630;28;20276;-67
2022/06/11 07:04:02;;;;;;;4.45;2.55;;;19.70;99.90;;;;;;6288855;28;20299;-67
2022/06/11 07:07:27;;;;;;;2.90;2.40;;;19.80;99.90;;;;;;6287834;28;20283;-67
2022/06/11 07:10:33;;;;;;;5.25;2.47;;;19.90;99.90;;;;;;6272440;28;20425;-68
2022/06/11 07:13:38;;;;;;;2.45;2.25;;;20.10;99.90;;;;;;6288415;28;20300;-68
2022/06/11 07:16:52;;;;;;;2.20;2.10;;;20.20;99.90;;;;;;6288500;28;20291;-68
2022/06/11 07:20:01;;;;;;;4.82;2.70;;;20.00;99.90;;;;;;6288509;28;20578;-68
2022/06/11 07:23:11;;;;;;;2.40;2.30;;;20.00;99.90;;;;;;6288048;28;20310;-68
2022/06/11 07:26:20;;;;;;;3.80;2.30;;;20.00;99.90;;;;;;6288760;28;20272;-68
2022/06/11 07:29:29;;;;;;;4.15;2.40;;;20.20;99.90;;;;;;6286782;28;20315;-68
2022/06/11 07:32:36;;;;;;;3.30;2.30;;;20.20;99.90;;;;;;6288141;28;20578;-68
2022/06/11 07:35:41;;;;;;;2.88;2.30;;;20.30;99.90;;;;;;6288702;28;20551;-68
2022/06/11 07:38:46;;;;;;;2.40;2.25;;;20.50;99.90;;;;;;6287492;28;20304;-68
2022/06/11 07:41:51;;;;;;;2.85;2.10;;;20.60;99.90;;;;;;6288422;28;20271;-68
2022/06/11 07:44:57;;;;;;;2.58;2.10;;;20.60;99.90;;;;;;6287639;28;20299;-67
2022/06/11 07:48:04;;;;;;;2.20;2.10;;;20.70;99.90;;;;;;6287087;28;20474;-68
2022/06/11 07:51:10;;;;;;;5.57;2.47;;;20.70;99.90;;;;;;6288310;28;20267;-67
2022/06/11 07:54:15;;;;;;;2.50;2.30;;;20.80;99.90;;;;;;6287207;28;20300;-68
2022/06/11 07:57:20;;;;;;;2.13;2.03;;;20.90;99.90;;;;;;6287177;28;20569;-68
2022/06/11 08:00:29;;;;;;;7.22;2.20;;;21.00;99.90;;;;;;6288089;28;20271;-67
2022/06/11 08:03:38;;;;;;;1.85;1.75;;;21.00;99.90;;;;;;6287043;28;20291;-68
2022/06/11 08:06:43;;;;;;;2.65;1.98;;;20.90;99.90;;;;;;6287804;28;20551;-67
2022/06/11 08:09:48;;;;;;;5.22;1.80;;;21.00;99.90;;;;;;6286508;28;20303;-68
2022/06/11 08:12:54;;;;;;;2.92;2.70;;;21.00;99.90;;;;;;6287329;28;20294;-68
2022/06/11 08:16:01;;;;;;;7.35;2.42;;;21.00;99.90;;;;;;6286803;28;20275;-68
2022/06/11 08:19:07;;;;;;;3.53;2.13;;;21.10;99.90;;;;;;6286528;28;20497;-68
2022/06/11 08:22:13;;;;;;;5.38;2.50;;;21.20;99.90;;;;;;6286419;28;20275;-69
2022/06/11 08:25:18;;;;;;;3.63;2.20;;;21.10;99.90;;;;;;6287167;28;20271;-68
2022/06/11 08:28:24;;;;;;;2.10;2.00;;;21.10;99.90;;;;;;6286880;28;20295;-69
2022/06/11 08:31:31;;;;;;;9.43;2.13;;;21.00;99.90;;;;;;6287174;28;20267;-69
2022/06/11 08:34:38;;;;;;;2.10;1.90;;;21.00;99.90;;;;;;6286301;28;20598;-68
2022/06/11 08:37:43;;;;;;;3.20;2.33;;;21.10;99.90;;;;;;6286426;28;20291;-67
2022/06/11 08:40:53;;;;;;;4.05;2.42;;;21.20;99.90;;;;;;6286509;28;20460;-67
2022/06/11 08:44:01;;;;;;;4.25;2.30;;;21.30;99.90;;;;;;6285147;28;20552;-67
2022/06/11 08:47:13;;;;;;;3.03;2.50;;;21.30;99.90;;;;;;6285283;28;20276;-67
2022/06/11 08:50:27;;;;;;;4.35;2.33;;;21.40;99.90;;;;;;6309345;28;20279;-66
2022/06/11 08:53:35;;;;;;;5.53;2.08;;;21.40;99.90;;;;;;6309035;28;20295;-67
2022/06/11 08:56:46;;;;;;;5.28;2.30;;;21.40;99.90;;;;;;6310782;28;20463;-67
2022/06/11 09:00:08;;;;;;;2.95;2.20;;;21.40;99.90;;;;;;6310693;28;20294;-70
2022/06/11 09:03:28;;;;;;;6.50;2.38;;;21.30;99.90;;;;;;6310029;28;20291;-68
2022/06/11 09:07:37;;;;;;;3.53;2.15;;;21.40;99.90;;;;;;6310823;28;20456;-67
2022/06/11 09:10:59;;;;;;;8.52;2.53;;;21.40;99.90;;;;;;6274054;28;20311;-67
2022/06/11 09:14:31;;;;;;;7.22;2.40;;;21.20;99.90;;;;;;6276625;28;20299;-66
2022/06/11 09:18:16;;;;;;;2.92;2.33;;;21.40;99.90;;;;;;6284203;28;20295;-67
2022/06/11 09:21:38;;;;;;;20.33;8.65;;;21.40;99.90;;;;;;6284083;28;20287;-68
2022/06/11 09:25:09;;;;;;;5.85;3.10;;;21.50;99.90;;;;;;6285603;28;20295;-68
2022/06/11 09:28:28;;;;;;;6.07;2.83;;;21.50;99.90;;;;;;6285136;28;20582;-68
2022/06/11 09:31:39;;;;;;;7.30;2.72;;;21.60;99.90;;;;;;6285421;28;20271;-68
2022/06/11 09:34:50;;;;;;;6.50;2.40;;;21.50;99.90;;;;;;6285505;28;20290;-68
2022/06/11 09:38:07;;;;;;;5.72;3.10;;;21.60;99.90;;;;;;6285187;28;20303;-68
2022/06/11 09:41:29;;;;;;;5.85;2.42;;;21.80;99.90;;;;;;6285750;28;20267;-68
2022/06/11 09:44:41;;;;;;;8.93;2.63;;;21.90;99.90;;;;;;6285198;28;20302;-68
2022/06/11 09:47:58;;;;;;;2.75;2.55;;;21.90;99.80;;;;;;6285077;28;20299;-67
2022/06/11 09:51:10;;;;;;;5.75;2.63;;;21.50;99.90;;;;;;6286035;28;20271;-68
2022/06/11 09:54:50;;;;;;;4.55;2.35;;;21.50;99.90;;;;;;6284192;28;20295;-67
2022/06/11 09:58:05;;;;;;;2.78;2.17;;;21.60;99.90;;;;;;6265433;28;20586;-67
2022/06/11 10:01:36;;;;;;;3.10;2.33;;;21.50;99.90;;;;;;6285383;28;20469;-68
2022/06/11 10:04:44;;;;;;;5.68;2.45;;;21.40;99.90;;;;;;6284868;28;20299;-66
2022/06/11 10:07:55;;;;;;;6.25;2.40;;;21.30;99.90;;;;;;6284678;28;20290;-69
2022/06/11 10:11:01;;;;;;;6.45;2.80;;;21.40;99.90;;;;;;6285341;28;20363;-69
2022/06/11 10:14:31;;;;;;;6.53;3.03;;;21.50;99.90;;;;;;6290000;28;20590;-70
2022/06/11 10:17:52;;;;;;;6.22;2.30;;;21.50;99.90;;;;;;6289814;28;20290;-69
2022/06/11 10:21:01;;;;;;;3.85;2.80;;;21.70;99.90;;;;;;6290521;28;20448;-68
2022/06/11 10:24:12;;;;;;;5.75;2.13;;;21.70;99.90;;;;;;6289850;28;20302;-69
2022/06/11 10:27:18;;;;;;;6.13;2.42;;;21.70;99.90;;;;;;6289650;28;20275;-68
2022/06/11 10:30:42;;;;;;;9.13;2.47;;;21.70;99.90;;;;;;6289776;28;20271;-68
2022/06/11 10:33:53;;;;;;;2.67;2.20;;;21.70;99.90;;;;;;6289255;28;20298;-68
2022/06/11 10:37:05;;;;;;;7.90;2.38;;;21.60;99.90;;;;;;6289790;28;20276;-68
2022/06/11 10:40:21;;;;;;;7.10;2.67;;;21.60;99.90;;;;;;6289059;28;20287;-69
2022/06/11 10:43:36;;;;;;;3.63;2.17;;;21.50;99.80;;;;;;6278643;28;20296;-68
2022/06/11 10:46:42;;;;;;;2.75;1.95;;;21.50;99.90;;;;;;6265172;28;20272;-68
2022/06/11 10:49:52;;;;;;;4.47;2.08;;;21.50;99.90;;;;;;6264083;28;20304;-68
2022/06/11 10:53:02;;;;;;;5.43;2.75;;;21.50;99.90;;;;;;6288973;28;20291;-68
2022/06/11 10:56:15;;;;;;;2.80;2.60;;;21.40;99.90;;;;;;6289474;28;20276;-68
2022/06/11 10:59:25;;;;;;;15.90;12.38;;;21.30;99.90;;;;;;6288483;28;20306;-68
2022/06/11 11:02:37;;;;;;;11.88;6.63;;;21.10;99.90;;;;;;6271007;28;20547;-68
2022/06/11 11:05:53;;;;;;;29.85;21.40;;;21.10;99.90;;;;;;6288800;28;20542;-68
2022/06/11 11:09:02;;;;;;;12.48;7.07;;;20.90;99.90;;;;;;6288206;28;20304;-68
2022/06/11 11:12:26;;;;;;;12.77;4.10;;;20.80;99.90;;;;;;6289163;28;20263;-68
2022/06/11 11:15:40;;;;;;;7.43;2.70;;;20.70;99.90;;;;;;6287298;28;20284;-67
2022/06/11 11:19:01;;;;;;;3.92;2.40;;;20.70;99.90;;;;;;6288541;28;20315;-69
2022/06/11 11:22:12;;;;;;;4.60;2.65;;;20.50;99.90;;;;;;6288862;28;20634;-68
2022/06/11 11:25:25;;;;;;;5.18;2.50;;;20.40;99.90;;;;;;6286638;28;20275;-68
2022/06/11 11:28:36;;;;;;;6.70;2.70;;;20.30;99.90;;;;;;6287726;28;20295;-68
2022/06/11 11:31:45;;;;;;;5.38;2.95;;;20.20;99.90;;;;;;6288510;28;20459;-68
2022/06/11 11:34:52;;;;;;;8.60;2.90;;;20.20;99.90;;;;;;6288142;28;20299;-67
2022/06/11 11:38:01;;;;;;;7.85;2.38;;;20.20;99.90;;;;;;6287883;28;20286;-68
2022/06/11 11:41:07;;;;;;;7.75;2.85;;;20.20;99.90;;;;;;6288080;28;20296;-68
2022/06/11 11:44:18;;;;;;;8.02;2.90;;;20.10;99.90;;;;;;6280577;28;20307;-68
2022/06/11 11:47:29;;;;;;;5.78;2.53;;;20.20;99.90;;;;;;6287883;28;20282;-68
2022/06/11 11:50:38;;;;;;;8.18;2.40;;;20.30;99.90;;;;;;6287565;28;20435;-68
2022/06/11 11:53:47;;;;;;;6.57;2.40;;;20.50;99.90;;;;;;6287441;28;20602;-68
2022/06/11 11:56:58;;;;;;;6.63;2.55;;;20.70;99.90;;;;;;6287779;28;20271;-68
2022/06/11 12:00:08;;;;;;;3.60;2.10;;;20.70;99.90;;;;;;6287378;28;20303;-68
2022/06/11 12:03:27;;;;;;;5.75;2.17;;;20.90;99.90;;;;;;6287350;28;20570;-68
2022/06/11 12:06:38;;;;;;;2.97;2.30;;;20.90;99.90;;;;;;6287388;28;20274;-68
2022/06/11 12:09:51;;;;;;;13.95;2.75;;;21.00;99.90;;;;;;6286790;28;20302;-68
2022/06/11 12:12:57;;;;;;;7.38;1.88;;;21.20;99.90;;;;;;6287095;28;20306;-68
2022/06/11 12:16:06;;;;;;;6.55;2.60;;;21.20;99.90;;;;;;6287431;28;20271;-68
2022/06/11 12:19:19;;;;;;;4.65;2.13;;;21.40;99.90;;;;;;6287123;28;20297;-67
2022/06/11 12:22:34;;;;;;;3.30;1.83;;;21.50;99.90;;;;;;6285935;28;20295;-67
2022/06/11 12:25:45;;;;;;;5.82;1.92;;;21.60;99.00;;;;;;6287314;28;20267;-68
2022/06/11 12:28:57;;;;;;;4.47;2.28;;;21.50;98.90;;;;;;6286469;28;20295;-68
2022/06/11 12:32:14;;;;;;;3.63;2.15;;;21.60;99.20;;;;;;6283792;28;20287;-68
2022/06/11 12:35:26;;;;;;;5.95;2.20;;;21.90;99.20;;;;;;6286010;28;20263;-68
2022/06/11 12:38:46;;;;;;;2.22;2.00;;;21.90;98.40;;;;;;6286449;28;20296;-68
2022/06/11 12:41:56;;;;;;;4.65;1.95;;;21.80;98.30;;;;;;6285730;28;20291;-68
2022/06/11 12:45:17;;;;;;;1.65;1.65;;;21.70;97.80;;;;;;6286528;28;20455;-68
2022/06/11 12:48:38;;;;;;;5.40;1.58;;;21.80;98.60;;;;;;6286360;28;20295;-68
2022/06/11 12:52:06;;;;;;;2.63;1.65;;;22.00;97.90;;;;;;6286286;28;20270;-68
2022/06/11 12:55:45;;;;;;;5.68;1.95;;;22.20;96.70;;;;;;6286704;28;20271;-68
2022/06/11 12:59:12;;;;;;;6.43;2.13;;;22.20;96.70;;;;;;6285764;28;20300;-68
2022/06/11 13:02:24;;;;;;;2.13;2.03;;;22.10;96.40;;;;;;6286079;28;20307;-68
2022/06/11 13:05:55;;;;;;;3.78;1.85;;;22.10;96.90;;;;;;6286136;28;20267;-68
2022/06/11 13:09:14;;;;;;;2.30;2.10;;;22.20;97.20;;;;;;6277560;28;20586;-68
2022/06/11 13:12:31;;;;;;;2.50;2.10;;;22.20;97.30;;;;;;6285577;28;20380;-68
2022/06/11 13:15:53;;;;;;;2.33;2.17;;;22.00;96.50;;;;;;6286344;28;20200;-68
2022/06/11 13:19:14;;;;;;;2.67;2.28;;;22.10;97.10;;;;;;6285487;28;20311;-68
2022/06/11 13:22:30;;;;;;;3.28;2.10;;;22.10;96.90;;;;;;6285211;28;20300;-68
2022/06/11 13:25:41;;;;;;;5.75;2.20;;;22.10;96.80;;;;;;6285385;28;20271;-68
2022/06/11 13:29:20;;;;;;;3.63;2.53;;;22.10;97.00;;;;;;6285107;28;20300;-67
2022/06/11 13:32:37;;;;;;;5.72;2.45;;;22.50;97.20;;;;;;6278035;28;20290;-69
2022/06/11 13:35:49;;;;;;;5.07;2.42;;;22.90;96.60;;;;;;6285707;28;20271;-68
2022/06/11 13:39:13;;;;;;;4.40;1.92;;;22.80;95.90;;;;;;6284777;28;20465;-68
2022/06/11 13:42:32;;;;;;;3.92;2.17;;;22.60;96.40;;;;;;6285325;28;20488;-68
2022/06/11 13:45:51;;;;;;;2.20;2.10;;;22.90;96.50;;;;;;6284813;28;20272;-68
2022/06/11 13:49:13;;;;;;;2.97;2.50;;;24.00;95.50;;;;;;6284637;28;20307;-67
2022/06/11 13:55:10;;;;;;;2.20;1.88;;;23.40;95.00;;;;;;6284819;28;20290;-68
2022/06/11 13:55:50;;;;;;;2.80;2.10;;;24.10;94.90;;;;;;6285438;28;20270;-67
2022/06/11 13:59:31;;;;;;;9.20;2.20;;;23.90;94.10;;;;;;6282957;28;20524;-67
2022/06/11 14:03:12;;;;;;;5.18;2.30;;;23.70;94.40;;;;;;6260620;28;20308;-68
2022/06/11 14:06:19;;;;;;;10.88;2.45;;;23.40;95.00;;;;;;6284757;28;20276;-68
2022/06/11 14:12:58;;;;;;;3.70;2.15;;;23.80;94.70;;;;;;6252047;28;20299;-68
2022/06/11 14:16:41;;;;;;;2.88;2.20;;;24.50;93.70;;;;;;6284926;28;20271;-68
2022/06/11 14:19:48;;;;;;;8.70;2.50;;;24.30;93.30;;;;;;6284537;28;20579;-68
2022/06/11 14:22:55;;;;;;;2.40;2.30;;;24.00;93.60;;;;;;6284571;28;20295;-67
2022/06/11 14:26:05;;;;;;;54.45;33.35;;;23.90;93.40;;;;;;6284923;28;20275;-68
2022/06/11 14:29:21;;;;;;;28.05;18.27;;;23.70;94.00;;;;;;6284521;28;20302;-68
2022/06/11 14:32:30;;;;;;;3.00;2.78;;;23.50;94.10;;;;;;6284781;28;20488;-67
2022/06/11 14:35:39;;;;;;;3.35;2.92;;;23.30;94.60;;;;;;6285291;28;20276;-67
2022/06/11 14:38:47;;;;;;;2.40;2.30;;;23.30;94.60;;;;;;6284607;28;20303;-68
2022/06/11 14:42:12;;;;;;;4.10;2.33;;;22.90;95.40;;;;;;6284745;28;20575;-67
2022/06/11 14:45:52;;;;;;;3.03;2.80;;;22.80;96.00;;;;;;6284997;28;20271;-68
2022/06/11 14:48:59;;;;;;;3.55;2.53;;;23.50;94.90;;;;;;6284564;28;20613;-68
2022/06/11 14:52:49;;;;;;;3.10;2.60;;;24.50;93.90;;;;;;6284054;28;20465;-68
2022/06/11 14:55:56;;;;;;;3.95;2.92;;;24.20;93.50;;;;;;6285090;28;20270;-68
2022/06/11 14:59:40;;;;;;;3.22;3.00;;;23.80;93.90;;;;;;6287503;28;20295;-68
2022/06/11 15:03:04;;;;;;;2.67;2.35;;;23.40;94.20;;;;;;6285796;28;20296;-67
2022/06/11 15:06:36;;;;;;;2.72;2.55;;;23.30;94.90;;;;;;6289162;28;20267;-68
2022/06/11 15:10:08;;;;;;;2.85;2.72;;;23.60;93.90;;;;;;6288131;28;20299;-67
2022/06/11 15:14:07;;;;;;;4.18;2.55;;;23.40;94.10;;;;;;6288461;28;20310;-66
2022/06/11 15:17:31;;;;;;;2.63;2.25;;;23.20;94.50;;;;;;6273789;28;20447;-68
2022/06/11 15:20:43;;;;;;;2.78;2.58;;;22.90;95.30;;;;;;6288693;28;20267;-68
2022/06/11 15:23:50;;;;;;;4.40;2.67;;;23.10;95.10;;;;;;6287631;28;20291;-68
2022/06/11 15:27:00;;;;;;;2.53;2.33;;;23.10;95.20;;;;;;6287926;28;20294;-67
2022/06/11 15:30:27;;;;;;;5.80;3.67;;;23.00;95.30;;;;;;6288626;28;20546;-68
2022/06/11 15:33:33;;;;;;;5.30;3.28;;;22.90;95.70;;;;;;6287568;28;20306;-69
2022/06/11 15:37:03;;;;;;;3.50;2.40;;;23.10;95.70;;;;;;6287362;28;20558;-68
2022/06/11 15:40:22;;;;;;;3.85;3.40;;;23.10;95.70;;;;;;6287810;28;20546;-69
2022/06/11 15:43:33;;;;;;;2.58;2.47;;;23.30;94.70;;;;;;6287505;28;20303;-68
2022/06/11 15:46:42;;;;;;;4.03;2.60;;;23.10;94.90;;;;;;6287678;28;20276;-67
2022/06/11 15:49:50;;;;;;;6.53;2.55;;;23.00;95.00;;;;;;6288029;28;20268;-67
2022/06/11 15:53:00;;;;;;;2.72;2.60;;;22.90;95.20;;;;;;6287601;28;20344;-68
2022/06/11 15:56:17;;;;;;;4.60;3.45;;;22.60;95.40;;;;;;6287650;28;20271;-68
2022/06/11 15:59:28;;;;;;;4.07;2.40;;;22.70;95.70;;;;;;6287201;28;20295;-68
2022/06/11 16:02:34;;;;;;;2.70;2.45;;;22.80;95.40;;;;;;6287160;28;20295;-67
2022/06/11 16:05:50;;;;;;;2.20;2.10;;;22.90;95.70;;;;;;6286922;28;20295;-67
2022/06/11 16:09:01;;;;;;;3.97;2.22;;;23.00;94.80;;;;;;6291881;28;20470;-67
2022/06/11 16:12:21;;;;;;;2.25;2.00;;;23.10;94.70;;;;;;6293908;28;20294;-67
2022/06/11 16:15:32;;;;;;;4.15;2.20;;;23.10;94.60;;;;;;6311467;28;20369;-67
2022/06/11 16:18:40;;;;;;;2.75;2.45;;;23.00;95.30;;;;;;6311490;28;20294;-68
2022/06/11 16:21:56;;;;;;;2.67;2.20;;;23.00;94.90;;;;;;6311423;28;20266;-67
2022/06/11 16:25:07;;;;;;;2.90;2.80;;;23.00;94.70;;;;;;6311386;28;20294;-67
2022/06/11 16:28:21;;;;;;;58.80;40.63;;;22.90;94.90;;;;;;6311088;28;20591;-68
2022/06/11 16:31:28;;;;;;;3.15;2.90;;;22.90;95.00;;;;;;6311646;28;20267;-68
2022/06/11 16:34:34;;;;;;;4.05;2.55;;;22.80;94.90;;;;;;6310837;28;20451;-68
2022/06/11 16:37:40;;;;;;;5.50;2.38;;;22.70;95.00;;;;;;6310705;28;20299;-67
2022/06/11 16:40:51;;;;;;;3.65;2.60;;;22.70;95.30;;;;;;6295442;28;20371;-68
2022/06/11 16:43:56;;;;;;;9.75;2.70;;;22.60;95.50;;;;;;6285829;28;20553;-67